Portada
METAR-TAF:

METAR-TAF

Aeropuertos :

Lanzarote, España

Aeropuerto de Lanzarote

latitud: 28-57N, longitud: 013-36W, altitud: 14 m

Observación

El informe se hizo hace 22 minutos, a las 10:30 UTC
Viento 21 kt del norte-noreste, variando entre norte y noreste
Temperatura 25°C
Humedad 61%
Presión 1016 hPa
Visibilidad 10 km o más
Escasas nubes a una altura de 2500 ft

METAR: GCRR 181030Z 02021KT 350V050 9999 FEW025 25/17 Q1016

Hora: 11:52 (10:52 UTC)

Pronóstico

El informe se hizo hace 2 horas y 52 minutos, a las 08:00 UTC
Pronóstico válido del 18 a las 09 UTC al 19 a las 09 UTC
Viento 20 kt del norte
Visibilidad 10 km o más
Escasas nubes a una altura de 3000 ft
Probabilidad 40% :
Temporalmente
del 18 a las 09 UTC al 19 a las 09 UTC
Viento 20 kt del norte con ráfagas de 30 kt

TAF: GCRR 180800Z 1809/1909 01020KT 9999 FEW030 TX28/1814Z TN20/1905Z PROB40 TEMPO 1809/1909 01020G30KT

Observaciones y pronósticos meteorológicos de más de 4000 aeropuertos (mensajes METAR y TAF).

Los puntos amarillos y rojos representan las estaciones disponibles.

Ponga el ratón en el punto deseado para ver el nombre de la estación.

Haga clic para ver las observaciones y los pronósticos meteorológicos.

Para cambiar el mapa : haga clic en los botones verdes con una cruz de color negro para hacer un zoom, en el botón verde con un guión para alejar o en las flechas verdes para mapas adyacentes.


METAR-TAF: